createdAt,value
2022-09-17T00:01:46.953Z,1.67
2022-09-17T00:04:17.215Z,1.80
2022-09-17T00:06:45.102Z,1.75
2022-09-17T00:09:14.328Z,1.83
2022-09-17T00:11:43.455Z,1.73
2022-09-17T00:14:17.569Z,1.63
2022-09-17T00:16:49.187Z,2.00
2022-09-17T00:19:20.814Z,1.63
2022-09-17T00:21:50.130Z,1.70
2022-09-17T00:24:48.515Z,1.63
2022-09-17T00:27:16.594Z,1.75
2022-09-17T00:29:45.386Z,2.05
2022-09-17T00:32:13.116Z,1.65
2022-09-17T00:34:43.539Z,1.60
2022-09-17T00:37:11.443Z,1.92
2022-09-17T00:39:39.607Z,1.55
2022-09-17T00:42:10.804Z,1.52
2022-09-17T00:44:53.065Z,1.40
2022-09-17T00:47:23.988Z,1.63
2022-09-17T00:50:08.735Z,1.45
2022-09-17T00:52:49.450Z,1.80
2022-09-17T00:55:27.939Z,1.50
2022-09-17T00:57:59.634Z,1.52
2022-09-17T01:02:55.810Z,1.38
2022-09-17T01:05:47.315Z,1.50
2022-09-17T01:08:27.215Z,1.50
2022-09-17T01:11:13.297Z,1.58
2022-09-17T01:14:06.073Z,1.50
2022-09-17T01:16:54.314Z,1.75
2022-09-17T01:19:41.369Z,1.65
2022-09-17T01:22:26.715Z,1.52
2022-09-17T01:24:54.992Z,1.48
2022-09-17T01:28:00.536Z,1.48
2022-09-17T01:30:28.317Z,1.60
2022-09-17T01:33:05.102Z,1.70
2022-09-17T01:35:59.531Z,1.60
2022-09-17T01:38:30.082Z,1.60
2022-09-17T01:41:16.493Z,1.88
2022-09-17T01:44:01.864Z,1.77
2022-09-17T01:46:35.542Z,1.75
2022-09-17T01:49:06.380Z,1.80
2022-09-17T01:51:40.986Z,1.73
2022-09-17T01:54:26.985Z,1.70
2022-09-17T01:57:08.123Z,1.80
2022-09-17T01:59:52.117Z,2.15
2022-09-17T02:02:46.937Z,1.88
2022-09-17T02:05:20.690Z,1.80
2022-09-17T02:07:54.348Z,1.90
2022-09-17T02:10:27.485Z,1.73
2022-09-17T02:13:02.669Z,1.80
2022-09-17T02:15:39.812Z,1.90
2022-09-17T02:18:29.849Z,1.85
2022-09-17T02:21:09.433Z,2.17
2022-09-17T02:23:54.101Z,1.88
2022-09-17T02:26:23.801Z,2.30
2022-09-17T02:28:59.152Z,2.08
2022-09-17T02:31:27.715Z,1.80
2022-09-17T02:34:01.555Z,2.40
2022-09-17T02:36:32.191Z,2.20
2022-09-17T02:39:02.304Z,2.28
2022-09-17T02:41:46.796Z,2.20
2022-09-17T02:44:41.996Z,1.90
2022-09-17T02:47:36.451Z,2.35
2022-09-17T02:50:17.943Z,2.17
2022-09-17T02:53:04.334Z,2.20
2022-09-17T02:55:36.769Z,2.47
2022-09-17T02:58:17.100Z,2.45
2022-09-17T03:00:46.457Z,2.53
2022-09-17T03:03:30.515Z,2.38
2022-09-17T03:06:00.327Z,2.40
2022-09-17T03:08:42.051Z,2.53
2022-09-17T03:11:13.005Z,2.60
2022-09-17T03:13:41.767Z,2.78
2022-09-17T03:16:09.695Z,2.83
2022-09-17T03:18:37.722Z,2.33
2022-09-17T03:21:07.205Z,2.33
2022-09-17T03:23:35.941Z,2.58
2022-09-17T03:26:04.345Z,2.85
2022-09-17T03:28:32.344Z,2.42
2022-09-17T03:31:00.234Z,2.20
2022-09-17T03:33:28.068Z,3.00
2022-09-17T03:35:56.138Z,2.40
2022-09-17T03:38:25.177Z,2.75
2022-09-17T03:41:02.413Z,2.55
2022-09-17T03:43:31.431Z,2.05
2022-09-17T03:46:00.604Z,2.63
2022-09-17T03:48:29.723Z,2.38
2022-09-17T03:50:58.620Z,2.65
2022-09-17T03:53:26.459Z,2.40
2022-09-17T03:55:57.599Z,2.45
2022-09-17T03:58:29.706Z,2.35
2022-09-17T04:00:58.151Z,3.28
2022-09-17T04:03:28.180Z,2.40
2022-09-17T04:05:57.140Z,2.40
2022-09-17T04:08:25.643Z,2.70
2022-09-17T04:10:54.274Z,2.63
2022-09-17T04:13:23.049Z,2.28
2022-09-17T04:15:52.240Z,2.58
2022-09-17T04:18:20.290Z,2.33
2022-09-17T04:20:48.482Z,2.30
2022-09-17T04:23:16.463Z,2.53
2022-09-17T04:25:44.906Z,2.30
2022-09-17T04:28:13.686Z,2.63
2022-09-17T04:30:43.426Z,2.63
2022-09-17T04:33:12.188Z,2.78
2022-09-17T04:35:40.781Z,2.67
2022-09-17T04:38:09.971Z,2.75
2022-09-17T04:40:38.971Z,2.70
2022-09-17T04:43:07.827Z,2.60
2022-09-17T04:45:36.149Z,2.72
2022-09-17T04:48:05.014Z,2.75
2022-09-17T04:50:34.065Z,2.50
2022-09-17T04:53:02.180Z,2.60
2022-09-17T04:55:31.464Z,2.65
2022-09-17T04:58:00.186Z,3.00
2022-09-17T05:00:28.225Z,2.53
2022-09-17T05:02:57.229Z,2.85
2022-09-17T05:05:26.798Z,2.70
2022-09-17T05:07:55.187Z,2.78
2022-09-17T05:10:24.148Z,2.60
2022-09-17T05:12:55.244Z,2.70
2022-09-17T05:15:24.775Z,3.00
2022-09-17T05:17:54.962Z,2.90
2022-09-17T05:20:25.226Z,2.47
2022-09-17T05:22:54.338Z,2.70
2022-09-17T05:25:27.563Z,2.72
2022-09-17T05:27:56.505Z,2.83
2022-09-17T05:30:24.915Z,2.85
2022-09-17T05:33:00.950Z,2.70
2022-09-17T05:35:30.916Z,2.92
2022-09-17T05:38:01.944Z,2.90
2022-09-17T05:40:31.506Z,2.90
2022-09-17T05:43:02.061Z,2.83
2022-09-17T05:45:32.553Z,2.63
2022-09-17T05:48:02.592Z,2.90
2022-09-17T05:50:34.539Z,2.70
2022-09-17T05:53:16.045Z,3.38
2022-09-17T05:55:45.183Z,2.60
2022-09-17T05:58:16.759Z,2.90
2022-09-17T06:00:46.736Z,2.72
2022-09-17T06:03:17.933Z,2.88
2022-09-17T06:06:24.522Z,2.40
2022-09-17T06:08:53.733Z,2.80
2022-09-17T06:11:28.716Z,2.30
2022-09-17T06:13:57.539Z,2.78
2022-09-17T06:16:41.536Z,2.65
2022-09-17T06:19:09.933Z,2.60
2022-09-17T06:21:37.885Z,3.08
2022-09-17T06:24:06.270Z,2.75
2022-09-17T06:26:34.910Z,2.75
2022-09-17T06:29:03.294Z,2.90
2022-09-17T06:31:31.187Z,3.30
2022-09-17T06:33:59.432Z,2.70
2022-09-17T06:36:27.661Z,2.55
2022-09-17T06:38:56.598Z,2.88
2022-09-17T06:41:25.328Z,3.08
2022-09-17T06:43:57.379Z,2.53
2022-09-17T06:46:25.718Z,2.80
2022-09-17T06:48:54.368Z,3.75
2022-09-17T06:51:22.738Z,2.90
2022-09-17T06:53:51.909Z,2.67
2022-09-17T06:56:20.338Z,3.00
2022-09-17T06:58:48.777Z,2.80
2022-09-17T07:01:17.469Z,3.30
2022-09-17T07:03:45.948Z,2.85
2022-09-17T07:06:14.370Z,2.80
2022-09-17T07:08:43.622Z,3.05
2022-09-17T07:11:11.661Z,2.88
2022-09-17T07:16:02.406Z,2.80
2022-09-17T07:18:32.107Z,2.80
2022-09-17T07:21:02.459Z,2.90
2022-09-17T07:23:33.897Z,3.90
2022-09-17T07:26:07.919Z,2.90
2022-09-17T07:28:38.392Z,2.65
2022-09-17T07:31:10.244Z,2.60
2022-09-17T07:33:41.588Z,2.75
2022-09-17T07:36:12.960Z,2.90
2022-09-17T07:38:40.859Z,3.03
2022-09-17T07:41:13.886Z,2.95
2022-09-17T07:43:45.043Z,3.03
2022-09-17T07:46:19.144Z,2.80
2022-09-17T07:48:49.723Z,3.00
2022-09-17T07:51:24.507Z,2.95
2022-09-17T07:54:00.468Z,3.30
2022-09-17T07:56:29.646Z,2.85
2022-09-17T07:58:58.304Z,2.80
2022-09-17T08:01:27.387Z,2.72
2022-09-17T08:03:55.866Z,2.83
2022-09-17T08:06:27.004Z,2.70
2022-09-17T08:08:57.565Z,2.75
2022-09-17T08:11:59.830Z,2.78
2022-09-17T08:14:17.991Z,2.60
2022-09-17T08:16:47.623Z,2.85
2022-09-17T08:19:15.550Z,2.38
2022-09-17T08:21:43.430Z,2.90
2022-09-17T08:24:12.034Z,3.25
2022-09-17T08:26:42.408Z,3.08
2022-09-17T08:29:11.384Z,2.67
2022-09-17T08:31:39.514Z,2.40
2022-09-17T08:34:09.604Z,2.08
2022-09-17T08:36:37.759Z,1.60
2022-09-17T08:39:06.268Z,1.65
2022-09-17T08:41:40.448Z,1.60
2022-09-17T08:44:30.699Z,1.70
2022-09-17T08:47:10.893Z,1.70
2022-09-17T08:49:52.450Z,1.50
2022-09-17T08:52:36.515Z,1.50
2022-09-17T08:55:31.317Z,1.35
2022-09-17T08:58:05.638Z,1.40
2022-09-17T09:00:58.119Z,1.70
2022-09-17T09:03:55.931Z,1.50
2022-09-17T09:06:29.962Z,1.63
2022-09-17T09:09:04.058Z,1.48
2022-09-17T09:11:33.204Z,1.35
2022-09-17T09:14:18.470Z,1.90
2022-09-17T09:16:48.656Z,1.60
2022-09-17T09:19:32.425Z,1.52
2022-09-17T09:22:25.066Z,1.52
2022-09-17T09:25:24.358Z,1.35
2022-09-17T09:28:35.868Z,1.35
2022-09-17T09:31:30.749Z,1.33
2022-09-17T09:34:01.304Z,1.42
2022-09-17T09:36:33.157Z,1.50
2022-09-17T09:39:25.187Z,1.52
2022-09-17T09:41:59.669Z,1.48
2022-09-17T09:44:28.921Z,1.60
2022-09-17T09:47:21.087Z,1.90
2022-09-17T09:50:08.716Z,1.42
2022-09-17T09:52:58.751Z,1.42
2022-09-17T09:55:43.536Z,1.70
2022-09-17T09:58:26.447Z,1.50
2022-09-17T10:00:55.210Z,1.85
2022-09-17T10:03:32.471Z,1.50
2022-09-17T10:06:04.547Z,1.42
2022-09-17T10:08:38.665Z,1.60
2022-09-17T10:11:21.724Z,1.17
2022-09-17T10:13:50.189Z,1.50
2022-09-17T10:16:24.536Z,1.60
2022-09-17T10:19:14.476Z,1.42
2022-09-17T10:21:43.525Z,1.38
2022-09-17T10:24:28.866Z,1.50
2022-09-17T10:27:07.619Z,1.60
2022-09-17T10:29:36.727Z,1.60
2022-09-17T10:32:07.058Z,1.20
2022-09-17T10:34:35.943Z,1.40
2022-09-17T10:37:04.612Z,1.33
2022-09-17T10:39:44.242Z,1.50
2022-09-17T10:42:16.108Z,1.45
2022-09-17T10:44:56.102Z,1.60
2022-09-17T10:47:30.337Z,1.42
2022-09-17T10:50:08.465Z,1.77
2022-09-17T10:52:41.680Z,1.40
2022-09-17T10:55:34.232Z,1.20
2022-09-17T10:58:05.982Z,1.38
2022-09-17T11:01:02.718Z,1.40
2022-09-17T11:03:59.773Z,1.25
2022-09-17T11:07:05.521Z,1.45
2022-09-17T11:09:44.416Z,1.65
2022-09-17T11:12:29.906Z,1.15
2022-09-17T11:15:16.234Z,1.60
2022-09-17T11:17:54.853Z,1.65
2022-09-17T11:20:23.112Z,1.52
2022-09-17T11:22:51.547Z,1.58
2022-09-17T11:25:34.808Z,1.45
2022-09-17T11:28:11.157Z,1.65
2022-09-17T11:30:47.755Z,1.42
2022-09-17T11:33:16.333Z,1.38
2022-09-17T11:35:52.382Z,1.83
2022-09-17T11:38:43.482Z,1.50
2022-09-17T11:41:16.750Z,1.30
2022-09-17T11:44:05.847Z,1.40
2022-09-17T11:46:46.611Z,1.70
2022-09-17T11:49:35.778Z,1.48
2022-09-17T11:52:13.538Z,1.50
2022-09-17T11:55:10.042Z,1.63
2022-09-17T11:57:43.206Z,1.63
2022-09-17T12:00:21.070Z,1.75
2022-09-17T12:02:52.554Z,1.60
2022-09-17T12:08:10.221Z,1.70
2022-09-17T12:11:02.969Z,1.60
2022-09-17T12:13:40.060Z,1.50
2022-09-17T12:16:15.917Z,1.48
2022-09-17T12:19:11.335Z,2.50
2022-09-17T12:21:47.830Z,1.52
2022-09-17T12:24:30.882Z,1.77
2022-09-17T12:27:27.994Z,1.40
2022-09-17T12:30:19.287Z,1.38
2022-09-17T12:33:15.063Z,1.40
2022-09-17T12:36:22.399Z,1.90
2022-09-17T12:39:10.319Z,1.42
2022-09-17T12:41:59.935Z,1.60
2022-09-17T12:44:57.988Z,1.52
2022-09-17T12:47:57.030Z,1.60
2022-09-17T12:50:33.366Z,1.27
2022-09-17T12:53:14.644Z,1.85
2022-09-17T12:56:09.256Z,1.60
2022-09-17T12:59:20.693Z,1.77
2022-09-17T13:02:04.966Z,1.70
2022-09-17T13:05:10.643Z,1.70
2022-09-17T13:08:06.415Z,1.60
2022-09-17T13:11:02.698Z,1.33
2022-09-17T13:13:52.738Z,1.60
2022-09-17T13:16:20.734Z,1.60
2022-09-17T13:19:17.793Z,1.70
2022-09-17T13:22:23.060Z,1.83
2022-09-17T13:25:13.359Z,1.67
2022-09-17T13:30:56.692Z,1.55
2022-09-17T13:33:55.825Z,1.80
2022-09-17T13:36:34.561Z,1.73
2022-09-17T13:39:04.480Z,1.60
2022-09-17T13:41:36.916Z,1.70
2022-09-17T13:44:06.664Z,1.52
2022-09-17T13:46:36.402Z,2.00
2022-09-17T13:49:12.986Z,1.48
2022-09-17T13:51:41.379Z,1.50
2022-09-17T13:54:11.683Z,1.70
2022-09-17T13:57:04.121Z,1.50
2022-09-17T13:59:33.138Z,1.70
2022-09-17T14:02:18.673Z,1.83
2022-09-17T14:04:49.326Z,1.50
2022-09-17T14:07:24.179Z,1.70
2022-09-17T14:09:57.612Z,1.30
2022-09-17T14:12:41.349Z,1.70
2022-09-17T14:15:41.303Z,1.50
2022-09-17T14:18:29.023Z,1.50
2022-09-17T14:21:09.243Z,1.70
2022-09-17T14:23:46.693Z,2.00
2022-09-17T14:26:37.184Z,1.70
2022-09-17T14:29:20.670Z,1.55
2022-09-17T14:31:48.840Z,1.77
2022-09-17T14:34:22.743Z,1.50
2022-09-17T14:39:28.720Z,1.50
2022-09-17T14:41:56.854Z,2.10
2022-09-17T14:44:28.539Z,1.60
2022-09-17T14:46:58.949Z,1.80
2022-09-17T14:49:33.125Z,1.70
2022-09-17T14:52:02.086Z,1.40
2022-09-17T14:54:36.505Z,1.63
2022-09-17T14:57:17.358Z,1.80
2022-09-17T14:59:49.891Z,1.80
2022-09-17T15:02:43.436Z,1.45
2022-09-17T15:05:34.159Z,1.75
2022-09-17T15:08:11.750Z,1.77
2022-09-17T15:11:13.580Z,1.38
2022-09-17T15:16:25.914Z,1.80
2022-09-17T15:18:58.972Z,1.70
2022-09-17T15:21:38.741Z,1.40
2022-09-17T15:24:32.506Z,1.70
2022-09-17T15:27:11.422Z,1.60
2022-09-17T15:29:42.800Z,1.40
2022-09-17T15:32:14.403Z,1.42
2022-09-17T15:34:43.497Z,1.38
2022-09-17T15:39:43.598Z,1.48
2022-09-17T15:42:27.654Z,1.50
2022-09-17T15:45:22.235Z,1.90
2022-09-17T15:47:53.243Z,1.70
2022-09-17T15:53:09.555Z,2.40
2022-09-17T15:55:46.747Z,2.17
2022-09-17T15:58:27.831Z,1.55
2022-09-17T16:01:14.836Z,1.85
2022-09-17T16:03:43.941Z,1.48
2022-09-17T16:06:17.990Z,1.77
2022-09-17T16:08:48.171Z,1.60
2022-09-17T16:11:16.793Z,1.60
2022-09-17T16:13:49.013Z,1.65
2022-09-17T16:16:19.355Z,1.42
2022-09-17T16:18:48.409Z,1.70
2022-09-17T16:21:18.770Z,1.55
2022-09-17T16:23:47.095Z,1.77
2022-09-17T16:26:18.353Z,1.42
2022-09-17T16:28:49.763Z,1.60
2022-09-17T16:31:18.685Z,1.80
2022-09-17T16:33:46.569Z,1.95
2022-09-17T16:36:17.329Z,1.70
2022-09-17T16:38:45.427Z,1.70
2022-09-17T16:41:13.761Z,1.88
2022-09-17T16:43:41.873Z,2.13
2022-09-17T16:46:11.490Z,2.40
2022-09-17T16:48:41.182Z,2.13
2022-09-17T16:51:13.093Z,1.80
2022-09-17T16:53:43.900Z,2.10
2022-09-17T16:56:14.600Z,1.52
2022-09-17T16:58:43.353Z,1.90
2022-09-17T17:01:14.317Z,1.70
2022-09-17T17:06:19.212Z,1.77
2022-09-17T17:08:47.920Z,1.70
2022-09-17T17:11:15.857Z,1.80
2022-09-17T17:13:45.171Z,1.80
2022-09-17T17:16:14.902Z,1.70
2022-09-17T17:18:44.208Z,1.67
2022-09-17T17:21:14.079Z,1.77
2022-09-17T17:23:43.935Z,1.73
2022-09-17T17:26:11.808Z,1.70
2022-09-17T17:28:39.584Z,1.73
2022-09-17T17:31:07.626Z,1.90
2022-09-17T17:33:35.722Z,1.80
2022-09-17T17:36:08.193Z,1.80
2022-09-17T17:38:38.773Z,1.92
2022-09-17T17:41:13.381Z,1.90
2022-09-17T17:43:42.568Z,1.52
2022-09-17T17:46:12.214Z,1.85
2022-09-17T17:48:40.122Z,2.28
2022-09-17T17:51:10.856Z,2.70
2022-09-17T17:53:42.309Z,2.22
2022-09-17T17:56:11.978Z,2.47
2022-09-17T17:58:41.312Z,3.08
2022-09-17T18:01:20.324Z,2.80
2022-09-17T18:03:50.043Z,2.30
2022-09-17T18:06:17.902Z,2.58
2022-09-17T18:08:45.734Z,2.05
2022-09-17T18:11:13.890Z,2.20
2022-09-17T18:13:41.752Z,2.33
2022-09-17T18:16:13.079Z,1.98
2022-09-17T18:18:44.890Z,2.22
2022-09-17T18:21:16.183Z,2.70
2022-09-17T18:26:21.132Z,2.00
2022-09-17T18:28:53.489Z,2.10
2022-09-17T18:31:26.823Z,2.00
2022-09-17T18:34:06.393Z,1.90
2022-09-17T18:36:36.034Z,1.88
2022-09-17T18:39:43.361Z,1.60
2022-09-17T18:41:56.331Z,2.20
2022-09-17T18:44:25.592Z,2.55
2022-09-17T18:46:58.333Z,3.30
2022-09-17T18:49:26.488Z,4.95
2022-09-17T18:51:54.374Z,3.78
2022-09-17T18:54:22.315Z,3.60
2022-09-17T18:56:50.886Z,4.38
2022-09-17T18:59:20.344Z,3.90
2022-09-17T19:01:49.130Z,4.40
2022-09-17T19:04:18.076Z,3.80
2022-09-17T19:06:45.838Z,3.60
2022-09-17T19:09:13.703Z,4.32
2022-09-17T19:11:42.128Z,4.40
2022-09-17T19:14:12.592Z,4.03
2022-09-17T19:16:40.891Z,4.07
2022-09-17T19:19:09.478Z,3.60
2022-09-17T19:21:37.664Z,3.67
2022-09-17T19:24:05.724Z,4.72
2022-09-17T19:26:34.578Z,24.55
2022-09-17T19:29:02.838Z,12.30
2022-09-17T19:31:31.727Z,10.38
2022-09-17T19:34:00.011Z,7.82
2022-09-17T19:36:28.009Z,6.60
2022-09-17T19:38:59.709Z,6.35
2022-09-17T19:41:28.642Z,7.88
2022-09-17T19:43:59.004Z,8.02
2022-09-17T19:46:30.309Z,7.10
2022-09-17T19:48:58.933Z,6.80
2022-09-17T19:51:29.827Z,6.57
2022-09-17T19:53:59.028Z,7.30
2022-09-17T19:56:27.979Z,7.13
2022-09-17T19:58:58.642Z,5.90
2022-09-17T20:01:27.500Z,5.63
2022-09-17T20:03:56.097Z,4.70
2022-09-17T20:06:26.850Z,4.82
2022-09-17T20:08:56.579Z,6.03
2022-09-17T20:11:26.407Z,8.00
2022-09-17T20:14:10.600Z,7.47
2022-09-17T20:16:40.211Z,8.63
2022-09-17T20:19:13.302Z,9.00
2022-09-17T20:21:41.989Z,8.95
2022-09-17T20:24:10.567Z,8.60
2022-09-17T20:26:40.485Z,8.48
2022-09-17T20:29:08.413Z,7.10
2022-09-17T20:31:36.225Z,6.15
2022-09-17T20:34:04.705Z,6.82
2022-09-17T20:36:35.343Z,7.22
2022-09-17T20:39:14.267Z,6.18
2022-09-17T20:41:47.133Z,6.90
2022-09-17T20:44:14.932Z,6.78
2022-09-17T20:46:42.843Z,7.20
2022-09-17T20:49:11.988Z,6.07
2022-09-17T20:51:39.885Z,6.65
2022-09-17T20:54:09.882Z,6.30
2022-09-17T20:56:38.043Z,5.70
2022-09-17T20:59:18.936Z,6.32
2022-09-17T21:01:49.772Z,6.87
2022-09-17T21:04:20.443Z,7.25
2022-09-17T21:06:52.446Z,6.30
2022-09-17T21:09:21.002Z,6.40
2022-09-17T21:11:49.440Z,5.95
2022-09-17T21:14:18.550Z,5.93
2022-09-17T21:16:49.092Z,5.68
2022-09-17T21:19:17.608Z,5.63
2022-09-17T21:21:48.010Z,5.80
2022-09-17T21:24:18.394Z,6.15
2022-09-17T21:26:46.464Z,6.87
2022-09-17T21:29:14.658Z,5.40
2022-09-17T21:31:43.582Z,5.60
2022-09-17T21:34:13.440Z,5.30
2022-09-17T21:36:44.463Z,5.45
2022-09-17T21:39:15.184Z,4.88
2022-09-17T21:41:45.203Z,6.00
2022-09-17T21:44:14.392Z,7.40
2022-09-17T21:46:43.207Z,6.32
2022-09-17T21:49:13.072Z,6.13
2022-09-17T21:51:42.670Z,6.68
2022-09-17T21:54:13.278Z,6.10
2022-09-17T21:56:41.850Z,5.97
2022-09-17T21:59:13.188Z,5.40
2022-09-17T22:04:14.325Z,7.10
2022-09-17T22:06:43.910Z,6.30
2022-09-17T22:09:22.834Z,6.88
2022-09-17T22:11:51.738Z,7.07
2022-09-17T22:14:22.526Z,6.25
2022-09-17T22:16:53.612Z,6.35
2022-09-17T22:19:23.557Z,6.20
2022-09-17T22:21:54.365Z,5.90
2022-09-17T22:24:23.171Z,5.45
2022-09-17T22:26:57.446Z,5.78
2022-09-17T22:29:28.244Z,6.68
2022-09-17T22:31:57.363Z,5.90
2022-09-17T22:34:26.437Z,6.10
2022-09-17T22:36:54.782Z,6.78
2022-09-17T22:39:23.259Z,6.15
2022-09-17T22:41:52.486Z,6.20
2022-09-17T22:44:23.661Z,6.55
2022-09-17T22:46:52.251Z,6.55
2022-09-17T22:49:20.529Z,6.10
2022-09-17T22:51:48.813Z,7.00
2022-09-17T22:54:18.468Z,6.93
2022-09-17T22:56:47.569Z,6.43
2022-09-17T22:59:15.721Z,6.47
2022-09-17T23:01:43.863Z,6.30
2022-09-17T23:04:11.834Z,7.32
2022-09-17T23:06:42.298Z,6.88
2022-09-17T23:09:12.910Z,7.15
2022-09-17T23:11:41.937Z,6.90
2022-09-17T23:14:12.853Z,5.93
2022-09-17T23:16:44.918Z,5.35
2022-09-17T23:19:16.724Z,5.03
2022-09-17T23:21:45.382Z,5.50
2022-09-17T23:24:18.666Z,6.40
2022-09-17T23:26:47.400Z,6.18
2022-09-17T23:29:16.218Z,5.80
2022-09-17T23:31:44.077Z,6.28
2022-09-17T23:34:12.145Z,6.22
2022-09-17T23:36:40.801Z,6.15
2022-09-17T23:39:11.480Z,5.35
2022-09-17T23:41:43.431Z,5.45
2022-09-17T23:44:15.808Z,5.13
2022-09-17T23:46:45.899Z,5.88
2022-09-17T23:49:15.225Z,5.43
2022-09-17T23:51:45.716Z,5.90
2022-09-17T23:54:15.764Z,5.28
2022-09-17T23:56:44.679Z,5.15
2022-09-17T23:59:14.868Z,4.82
